Time;durP1;ratioP1;P1;durP2;ratioP2;P2;SDS_P1;SDS_P2;PMS_P1;PMS_P2;Temp;Humidity;BMP_temperature;BMP_pressure;BME280_temperature;BME280_humidity;BME280_pressure;Samples;Min_cycle;Max_cycle;Signal;HPM_P1;HPM_P2
2021/07/27 00:00:39;;;;;;;14.65;10.27;;;;;;;21.98;69.20;100611.91;4845800;28;123436;-75
2021/07/27 00:03:05;;;;;;;16.80;10.88;;;;;;;21.91;69.10;100601.34;4856248;28;122262;-74
2021/07/27 00:05:31;;;;;;;13.30;10.38;;;;;;;21.94;69.13;100609.41;4836008;28;122425;-75
2021/07/27 00:07:57;;;;;;;15.82;10.35;;;;;;;21.92;69.45;100609.19;4851525;28;121863;-75
2021/07/27 00:10:24;;;;;;;16.00;11.27;;;;;;;21.90;69.46;100608.97;4862634;28;123822;-75
2021/07/27 00:12:49;;;;;;;14.77;11.15;;;;;;;21.91;69.13;100613.28;4836528;28;125988;-75
2021/07/27 00:15:15;;;;;;;14.25;10.63;;;;;;;21.88;68.85;100610.78;4852493;28;122289;-75
2021/07/27 00:17:40;;;;;;;15.68;9.75;;;;;;;21.88;68.94;100613.59;4850481;28;122537;-75
2021/07/27 00:20:07;;;;;;;18.45;11.10;;;;;;;21.85;69.06;100618.19;4836602;28;122882;-75
2021/07/27 00:22:42;;;;;;;14.18;10.48;;;;;;;21.86;68.55;100625.28;4849587;28;122598;-75
2021/07/27 00:25:08;;;;;;;16.05;11.10;;;;;;;21.83;68.69;100625.59;4868477;28;122709;-75
2021/07/27 00:27:35;;;;;;;15.30;10.40;;;;;;;21.81;68.90;100626.13;4851137;28;121846;-75
2021/07/27 00:30:03;;;;;;;18.52;10.43;;;;;;;21.78;68.69;100621.59;4851298;28;122508;-75
2021/07/27 00:32:32;;;;;;;15.05;10.32;;;;;;;21.76;68.90;100624.16;4850738;28;124065;-75
2021/07/27 00:34:58;;;;;;;15.02;9.23;;;;;;;21.73;68.75;100625.22;4869581;28;122316;-75
2021/07/27 00:37:28;;;;;;;13.27;10.55;;;;;;;21.67;68.88;100618.97;4868421;28;122116;-75
2021/07/27 00:39:55;;;;;;;14.00;9.18;;;;;;;21.64;68.46;100611.66;4848541;28;124457;-75
2021/07/27 00:42:21;;;;;;;14.85;10.57;;;;;;;21.61;68.84;100613.47;4849573;28;122077;-75
2021/07/27 00:44:49;;;;;;;12.85;9.45;;;;;;;21.61;68.52;100618.28;4851145;28;122105;-75
2021/07/27 00:47:17;;;;;;;13.98;9.40;;;;;;;21.58;68.58;100619.34;4864257;28;122276;-75
2021/07/27 00:49:43;;;;;;;12.85;10.45;;;;;;;21.54;68.75;100616.13;4821851;28;121996;-75
2021/07/27 00:52:11;;;;;;;20.80;10.35;;;;;;;21.52;68.90;100621.44;4853574;28;121984;-75
2021/07/27 00:54:37;;;;;;;14.90;10.18;;;;;;;21.49;68.72;100623.25;4851499;28;122292;-75
2021/07/27 00:57:04;;;;;;;23.48;11.07;;;;;;;21.49;69.64;100626.06;4851532;28;124994;-75
2021/07/27 00:59:30;;;;;;;14.23;9.30;;;;;;;21.48;68.71;100629.38;4836020;28;121743;-75
2021/07/27 01:01:56;;;;;;;18.05;9.77;;;;;;;21.44;68.53;100624.09;4869356;28;122487;-75
2021/07/27 01:04:24;;;;;;;18.88;10.23;;;;;;;21.43;68.64;100622.59;4819883;28;123529;-75
2021/07/27 01:06:50;;;;;;;14.05;9.25;;;;;;;21.40;68.11;100618.06;4849915;28;123649;-75
2021/07/27 01:09:18;;;;;;;17.27;9.30;;;;;;;21.39;68.74;100616.56;4855218;28;121568;-75
2021/07/27 01:11:44;;;;;;;10.30;8.38;;;;;;;21.35;67.64;100616.09;4850832;28;123247;-75
2021/07/27 01:14:10;;;;;;;23.23;10.10;;;;;;;21.29;68.17;100610.59;4852757;28;122694;-75
2021/07/27 01:16:37;;;;;;;19.17;9.95;;;;;;;21.28;68.57;100606.28;4867956;28;122491;-75
2021/07/27 01:43:52;;;;;;;17.95;8.88;;;;;;;21.07;68.70;100599.69;4858720;28;121750;-75
2021/07/27 01:46:18;;;;;;;12.35;8.52;;;;;;;21.04;68.74;100600.72;4866092;28;122127;-75
2021/07/27 01:48:44;;;;;;;13.05;8.27;;;;;;;21.05;68.48;100613.38;4869252;28;122131;-75
2021/07/27 01:51:16;;;;;;;14.43;8.85;;;;;;;21.01;68.13;100607.34;4846765;28;122258;-75
2021/07/27 01:53:49;;;;;;;13.52;8.95;;;;;;;21.00;68.25;100617.00;4850902;28;123137;-75
2021/07/27 01:56:16;;;;;;;15.40;9.38;;;;;;;20.99;68.27;100609.91;4850673;28;123729;-75
2021/07/27 01:58:43;;;;;;;12.90;9.32;;;;;;;20.99;68.32;100609.91;4851396;28;121425;-75
2021/07/27 02:01:09;;;;;;;11.00;8.18;;;;;;;20.97;68.42;100610.44;4867426;28;122067;-75
2021/07/27 02:03:36;;;;;;;10.63;8.20;;;;;;;20.95;68.03;100615.03;4866218;28;121591;-75
2021/07/27 02:06:02;;;;;;;12.63;8.68;;;;;;;20.93;68.46;100618.34;4849970;28;121569;-75
2021/07/27 02:08:27;;;;;;;15.90;9.77;;;;;;;20.90;68.56;100613.81;4863758;28;122107;-75
2021/07/27 02:11:00;;;;;;;17.15;8.95;;;;;;;20.89;68.17;100614.34;4868860;28;121805;-75
2021/07/27 02:13:30;;;;;;;18.52;9.30;;;;;;;20.90;68.57;100621.44;4866768;28;124169;-75
2021/07/27 02:15:58;;;;;;;13.65;7.57;;;;;;;20.87;68.16;100614.13;4871005;28;122573;-75
2021/07/27 02:18:24;;;;;;;10.77;8.05;;;;;;;20.81;67.74;100617.72;4867343;28;121613;-75
2021/07/27 02:20:49;;;;;;;12.13;8.68;;;;;;;20.80;68.10;100616.19;4833911;28;124237;-75
2021/07/27 02:23:16;;;;;;;12.70;8.68;;;;;;;20.72;68.19;100606.16;4865761;28;122225;-75
2021/07/27 02:25:41;;;;;;;12.32;8.68;;;;;;;20.76;68.04;100612.94;4850750;28;123759;-75
2021/07/27 02:28:13;;;;;;;10.52;8.40;;;;;;;20.72;68.17;100609.69;4851962;28;121928;-75
2021/07/27 02:31:20;;;;;;;13.68;8.05;;;;;;;20.72;68.36;100618.06;4849959;28;121870;-75
2021/07/27 02:33:36;;;;;;;13.82;9.00;;;;;;;20.71;68.60;100622.13;4843375;28;121727;-75
2021/07/27 02:36:02;;;;;;;16.80;9.18;;;;;;;20.75;68.91;100619.81;4847343;28;121625;-75
2021/07/27 02:38:28;;;;;;;16.75;9.10;;;;;;;20.79;68.97;100633.44;4868280;28;122006;-75
2021/07/27 02:40:53;;;;;;;17.88;10.10;;;;;;;20.75;69.12;100614.22;4846638;28;122087;-75
2021/07/27 02:43:21;;;;;;;21.70;10.63;;;;;;;20.81;69.59;100628.84;4850034;28;122219;-75
2021/07/27 02:45:49;;;;;;;16.77;12.07;;;;;;;20.85;69.45;100634.16;4834787;28;121616;-75
2021/07/27 02:48:15;;;;;;;15.43;11.48;;;;;;;20.87;69.75;100631.59;4859431;28;121766;-75
2021/07/27 02:50:43;;;;;;;16.70;11.38;;;;;;;20.90;69.69;100636.13;4861142;28;122178;-75
2021/07/27 02:53:10;;;;;;;20.58;11.90;;;;;;;20.92;69.96;100628.00;4867230;28;121746;-75
2021/07/27 02:55:36;;;;;;;18.30;12.07;;;;;;;20.96;69.86;100613.75;4865969;28;122155;-75
2021/07/27 02:58:11;;;;;;;22.92;12.90;;;;;;;21.00;70.15;100620.53;4866974;28;122189;-75
2021/07/27 03:00:37;;;;;;;21.17;13.73;;;;;;;21.04;69.89;100617.47;4855335;28;121907;-75
2021/07/27 03:03:05;;;;;;;18.40;14.02;;;;;;;21.05;70.07;100610.59;4853305;28;121767;-75
2021/07/27 03:05:30;;;;;;;23.75;14.55;;;;;;;21.09;69.90;100614.63;4866637;28;122309;-75
2021/07/27 03:07:58;;;;;;;21.52;13.63;;;;;;;21.09;70.13;100616.66;4850406;28;122041;-75
2021/07/27 03:10:24;;;;;;;25.35;15.35;;;;;;;21.10;70.30;100615.38;4835425;28;121694;-75
2021/07/27 03:12:56;;;;;;;19.80;15.38;;;;;;;21.12;69.59;100610.03;4869746;28;121844;-75
2021/07/27 03:15:23;;;;;;;21.25;15.25;;;;;;;21.11;70.07;100612.06;4851996;28;126886;-75
2021/07/27 03:17:55;;;;;;;22.02;15.07;;;;;;;21.13;70.04;100617.88;4836742;28;121954;-75
2021/07/27 03:20:21;;;;;;;18.35;13.43;;;;;;;21.13;69.72;100603.91;4839036;28;122079;-75
2021/07/27 03:22:47;;;;;;;23.92;15.15;;;;;;;21.12;69.63;100602.41;4859586;28;121617;-75
2021/07/27 03:25:16;;;;;;;24.15;16.65;;;;;;;21.17;70.19;100606.41;4867651;28;122194;-75
2021/07/27 03:27:43;;;;;;;26.73;16.50;;;;;;;21.19;69.82;100592.69;4852403;28;121877;-75
2021/07/27 03:30:10;;;;;;;18.60;15.35;;;;;;;21.21;69.85;100597.75;4821950;28;122173;-75
2021/07/27 03:32:36;;;;;;;21.73;16.08;;;;;;;21.22;69.81;100608.38;4837287;28;122380;-75
2021/07/27 03:35:03;;;;;;;20.65;15.98;;;;;;;21.22;69.83;100600.00;4864917;28;122705;-75
2021/07/27 03:37:28;;;;;;;24.45;17.50;;;;;;;21.24;69.96;100591.13;4835814;28;122684;-75
2021/07/27 03:39:54;;;;;;;27.25;16.92;;;;;;;21.26;69.78;100578.16;4853228;28;121818;-75
2021/07/27 03:42:22;;;;;;;22.73;16.67;;;;;;;21.25;69.57;100571.06;4840662;28;122338;-75
2021/07/27 03:44:56;;;;;;;26.30;18.55;;;;;;;21.30;69.73;100580.69;4853025;28;121628;-75
2021/07/27 03:47:21;;;;;;;27.30;17.50;;;;;;;21.28;69.81;100583.97;4850267;28;124844;-75
2021/07/27 03:49:47;;;;;;;24.27;16.42;;;;;;;21.28;69.76;100589.53;4853847;28;121756;-76
2021/07/27 03:52:13;;;;;;;23.38;17.17;;;;;;;21.26;69.56;100583.75;4852586;28;122588;-75
2021/07/27 03:54:38;;;;;;;25.27;17.25;;;;;;;21.28;69.68;100583.22;4835742;28;124795;-75
2021/07/27 03:57:04;;;;;;;24.38;17.20;;;;;;;21.29;69.71;100581.94;4852166;28;121931;-75
2021/07/27 03:59:34;;;;;;;29.73;18.13;;;;;;;21.28;69.87;100575.59;4854737;28;122358;-75
2021/07/27 04:02:03;;;;;;;27.20;17.25;;;;;;;21.31;69.77;100580.16;4867137;28;122436;-75
2021/07/27 04:04:33;;;;;;;27.15;17.13;;;;;;;21.29;69.43;100565.19;4857209;28;121837;-75
2021/07/27 04:06:59;;;;;;;31.13;17.35;;;;;;;21.28;69.52;100563.69;4850985;28;123043;-75
2021/07/27 04:09:25;;;;;;;30.38;18.67;;;;;;;21.31;69.73;100560.63;4836975;28;122221;-75
2021/07/27 04:11:51;;;;;;;29.05;17.55;;;;;;;21.33;69.66;100560.84;4852783;28;121707;-76
2021/07/27 04:14:16;;;;;;;28.00;18.30;;;;;;;21.35;69.56;100565.91;4851538;28;123062;-75
2021/07/27 04:16:42;;;;;;;28.63;18.38;;;;;;;21.36;69.67;100570.94;4851353;28;122133;-75
2021/07/27 04:19:09;;;;;;;29.63;18.42;;;;;;;21.35;69.76;100563.84;4835968;28;123493;-75
2021/07/27 04:24:17;;;;;;;26.85;18.30;;;;;;;21.33;69.99;100546.13;4905163;28;123200;-74
2021/07/27 04:26:42;;;;;;;32.63;17.55;;;;;;;21.45;69.92;100567.00;4911472;28;122230;-74
2021/07/27 04:29:08;;;;;;;28.27;18.98;;;;;;;21.45;69.83;100562.19;4901086;28;121744;-74
2021/07/27 04:31:34;;;;;;;30.67;18.63;;;;;;;21.51;69.89;100566.91;4901955;28;122355;-75
2021/07/27 04:34:02;;;;;;;31.08;17.73;;;;;;;21.50;70.12;100565.41;4897747;28;122513;-74
2021/07/27 04:36:28;;;;;;;33.30;19.20;;;;;;;21.55;70.15;100567.41;4900351;28;121947;-76
2021/07/27 04:38:56;;;;;;;29.30;17.45;;;;;;;21.57;69.85;100568.38;4873908;28;122083;-74
2021/07/27 04:41:22;;;;;;;28.48;16.90;;;;;;;21.55;70.09;100559.03;4900255;28;122534;-73
2021/07/27 04:43:50;;;;;;;29.73;17.50;;;;;;;21.62;70.03;100575.91;4890163;28;122043;-74
2021/07/27 04:46:16;;;;;;;25.30;16.63;;;;;;;21.65;70.28;100569.25;4874268;28;122217;-73
2021/07/27 04:48:43;;;;;;;27.27;17.90;;;;;;;21.67;69.96;100568.72;4875705;28;122193;-73
2021/07/27 04:51:08;;;;;;;31.60;18.50;;;;;;;21.67;70.48;100560.34;4895077;28;121989;-74
2021/07/27 04:53:36;;;;;;;33.28;18.85;;;;;;;21.72;70.16;100557.47;4890211;28;122726;-74
2021/07/27 04:56:02;;;;;;;35.95;18.75;;;;;;;21.76;70.30;100559.94;4890579;28;122318;-73
2021/07/27 04:58:30;;;;;;;29.02;17.77;;;;;;;21.81;70.19;100558.38;4890813;28;121693;-74
2021/07/27 05:01:01;;;;;;;24.60;16.85;;;;;;;21.84;70.35;100569.22;4891387;28;125291;-74
2021/07/27 05:03:29;;;;;;;25.30;17.08;;;;;;;21.85;69.74;100558.81;4875093;28;122716;-74
2021/07/27 05:05:54;;;;;;;24.15;17.40;;;;;;;21.78;69.97;100545.47;4901119;28;122186;-74
2021/07/27 05:08:20;;;;;;;25.05;15.63;;;;;;;21.76;69.67;100546.75;4899371;28;122139;-74
2021/07/27 05:10:46;;;;;;;21.70;14.98;;;;;;;21.86;69.72;100565.91;4903385;28;122441;-73
2021/07/27 05:13:12;;;;;;;22.75;16.35;;;;;;;21.89;69.86;100568.38;4920366;28;121876;-74
2021/07/27 05:15:38;;;;;;;23.40;16.77;;;;;;;21.91;69.28;100570.63;4866107;28;127552;-73
2021/07/27 05:18:04;;;;;;;24.30;16.30;;;;;;;21.92;69.72;100570.09;4889280;28;122654;-74
2021/07/27 05:20:31;;;;;;;29.33;17.15;;;;;;;21.91;70.15;100568.59;4881370;28;122373;-73
2021/07/27 05:22:57;;;;;;;23.60;16.08;;;;;;;21.93;69.41;100570.84;4886989;28;122987;-74
2021/07/27 05:25:23;;;;;;;20.92;14.93;;;;;;;21.93;69.63;100566.03;4868786;28;121913;-73
2021/07/27 05:27:49;;;;;;;21.10;15.95;;;;;;;21.96;70.00;100567.00;4891272;28;122621;-74
2021/07/27 05:30:16;;;;;;;25.48;16.63;;;;;;;21.98;69.84;100567.22;4896415;28;122266;-74
2021/07/27 05:32:43;;;;;;;24.27;16.02;;;;;;;22.02;70.03;100562.84;4888134;28;124749;-74
2021/07/27 05:35:10;;;;;;;22.35;14.43;;;;;;;22.04;69.97;100565.88;4886846;28;122345;-74
2021/07/27 05:37:37;;;;;;;23.02;16.05;;;;;;;22.05;70.15;100572.97;4877777;28;122691;-74
2021/07/27 05:40:03;;;;;;;21.83;16.08;;;;;;;22.07;69.41;100575.22;4894638;28;123457;-73
2021/07/27 05:42:32;;;;;;;21.52;15.45;;;;;;;22.07;69.88;100572.44;4907005;28;121851;-73
2021/07/27 05:44:59;;;;;;;21.52;15.98;;;;;;;22.05;69.63;100572.97;4904206;28;122304;-74
2021/07/27 05:47:26;;;;;;;26.13;16.63;;;;;;;22.09;69.72;100571.91;4879261;28;122249;-73
2021/07/27 05:49:51;;;;;;;21.38;15.43;;;;;;;22.10;69.66;100568.56;4892881;28;122038;-73
2021/07/27 05:52:17;;;;;;;22.58;15.70;;;;;;;22.13;69.59;100577.94;4901856;28;121869;-74
2021/07/27 05:54:46;;;;;;;25.40;16.90;;;;;;;22.13;69.79;100577.94;4887569;28;122621;-74
2021/07/27 05:57:17;;;;;;;29.92;17.63;;;;;;;22.18;70.74;100569.44;4901534;28;121866;-73
2021/07/27 05:59:43;;;;;;;25.73;17.67;;;;;;;22.19;70.45;100562.56;4905272;28;122413;-74
2021/07/27 06:02:11;;;;;;;23.42;17.40;;;;;;;22.22;70.08;100566.34;4884718;28;121952;-74
2021/07/27 06:04:40;;;;;;;26.15;18.10;;;;;;;22.31;70.27;100568.72;4898636;28;122399;-74
2021/07/27 06:07:08;;;;;;;29.50;19.55;;;;;;;22.33;70.35;100575.28;4882454;28;125025;-73
2021/07/27 06:09:34;;;;;;;31.20;20.42;;;;;;;22.39;70.64;100580.75;4891538;28;122011;-74
2021/07/27 06:11:59;;;;;;;26.80;19.73;;;;;;;22.39;70.46;100571.63;4897914;28;122045;-74
2021/07/27 06:14:25;;;;;;;30.23;20.52;;;;;;;22.47;70.62;100581.63;4894739;28;122207;-73
2021/07/27 06:16:53;;;;;;;34.33;22.05;;;;;;;22.51;70.86;100584.88;4894770;28;123774;-73
2021/07/27 06:19:19;;;;;;;34.22;23.00;;;;;;;22.58;71.26;100589.06;4895478;28;124043;-74
2021/07/27 06:21:45;;;;;;;32.78;22.13;;;;;;;22.59;71.30;100574.56;4900250;28;122597;-74
2021/07/27 06:24:11;;;;;;;34.28;22.27;;;;;;;22.70;71.16;100590.34;4868323;28;124833;-73
2021/07/27 06:26:38;;;;;;;40.72;25.42;;;;;;;22.78;71.47;100596.06;4872130;28;122969;-73
2021/07/27 06:29:07;;;;;;;41.65;26.35;;;;;;;22.90;71.80;100597.38;4888804;28;122281;-73
2021/07/27 06:31:33;;;;;;;35.03;25.00;;;;;;;23.04;72.09;100600.94;4896265;28;122696;-74
2021/07/27 06:33:58;;;;;;;29.67;22.33;;;;;;;23.14;71.03;100591.53;4902697;28;125066;-74
2021/07/27 06:36:24;;;;;;;33.00;23.85;;;;;;;23.29;70.88;100590.97;4907006;28;121700;-74
2021/07/27 06:38:51;;;;;;;31.02;21.85;;;;;;;23.45;70.81;100594.72;4869723;28;124775;-74
2021/07/27 06:41:16;;;;;;;34.28;24.13;;;;;;;23.53;70.05;100595.53;4901355;28;122479;-73
2021/07/27 06:43:42;;;;;;;32.63;21.52;;;;;;;23.59;70.01;100593.41;4899639;28;124063;-73
2021/07/27 06:46:09;;;;;;;25.23;18.90;;;;;;;23.62;70.01;100609.09;4905539;28;124257;-74
2021/07/27 06:48:37;;;;;;;30.35;20.00;;;;;;;23.63;69.13;100602.22;4907117;28;123558;-75
2021/07/27 06:51:11;;;;;;;36.90;23.73;;;;;;;23.61;70.33;100616.00;4905023;28;122380;-74
2021/07/27 06:53:38;;;;;;;29.67;20.10;;;;;;;23.59;69.62;100621.38;4862132;28;122739;-74
2021/07/27 06:56:08;;;;;;;43.15;22.35;;;;;;;23.54;69.18;100609.00;4900374;28;122437;-73
2021/07/27 06:58:36;;;;;;;45.03;23.10;;;;;;;23.42;69.38;100587.38;4876480;28;122337;-73
2021/07/27 07:01:07;;;;;;;33.47;19.60;;;;;;;23.32;69.85;100597.53;4905095;28;122034;-74
2021/07/27 07:03:32;;;;;;;26.33;17.85;;;;;;;23.19;69.71;100604.69;4916281;28;122086;-73
2021/07/27 07:05:59;;;;;;;30.98;17.85;;;;;;;23.10;70.41;100598.75;4909512;28;122741;-73
2021/07/27 07:08:25;;;;;;;39.70;20.73;;;;;;;23.05;70.18;100602.44;4889804;28;122661;-75
2021/07/27 07:10:59;;;;;;;44.08;22.90;;;;;;;22.99;70.75;100605.34;4904045;28;122056;-75
2021/07/27 07:13:26;;;;;;;45.20;23.70;;;;;;;22.98;71.35;100603.84;4876551;28;122914;-73
2021/07/27 07:15:53;;;;;;;48.08;24.23;;;;;;;23.00;71.37;100604.06;4878284;28;122809;-74
2021/07/27 07:18:19;;;;;;;60.47;28.95;;;;;;;23.01;71.10;100608.34;4896752;28;122492;-73
2021/07/27 07:20:48;;;;;;;65.22;28.50;;;;;;;23.02;71.89;100601.47;4906052;28;122388;-73
2021/07/27 07:23:14;;;;;;;64.47;30.60;;;;;;;23.09;71.89;100608.44;4894223;28;122579;-72
2021/07/27 07:25:43;;;;;;;73.68;29.27;;;;;;;23.07;72.39;100599.84;4900623;28;122328;-73
2021/07/27 07:28:12;;;;;;;57.35;27.85;;;;;;;23.23;72.63;100613.50;4900775;28;125629;-73
2021/07/27 07:30:39;;;;;;;63.55;29.33;;;;;;;23.31;72.71;100629.63;4889405;28;125412;-74
2021/07/27 07:33:07;;;;;;;70.32;30.88;;;;;;;23.39;71.99;100622.06;4899408;28;123465;-75
2021/07/27 07:35:35;;;;;;;56.08;27.58;;;;;;;23.43;71.97;100619.69;4900016;28;121980;-73
2021/07/27 07:38:02;;;;;;;83.53;33.83;;;;;;;23.48;71.70;100627.22;4872685;28;122719;-73
2021/07/27 07:40:28;;;;;;;63.38;31.95;;;;;;;23.53;72.12;100629.91;4893245;28;122327;-73
2021/07/27 07:42:59;;;;;;;65.20;32.22;;;;;;;23.62;71.73;100630.75;4904447;28;122405;-73
2021/07/27 07:45:26;;;;;;;64.55;31.70;;;;;;;23.66;71.63;100626.34;4886837;28;124817;-73
2021/07/27 07:47:52;;;;;;;68.68;33.08;;;;;;;23.67;71.73;100619.44;4882304;28;123392;-73
2021/07/27 07:50:18;;;;;;;62.90;32.35;;;;;;;23.74;71.73;100635.56;4907181;28;122114;-73
2021/07/27 07:52:44;;;;;;;68.18;33.47;;;;;;;23.79;71.35;100640.28;4888047;28;122584;-74
2021/07/27 07:55:13;;;;;;;48.85;28.90;;;;;;;23.83;71.22;100634.34;4887962;28;121247;-73
2021/07/27 07:57:39;;;;;;;68.25;33.22;;;;;;;23.86;71.37;100631.19;4888432;28;122694;-72
2021/07/27 08:00:06;;;;;;;58.35;30.60;;;;;;;23.91;71.71;100623.25;4910751;28;122348;-73
2021/07/27 08:02:37;;;;;;;48.33;28.23;;;;;;;23.98;71.43;100628.16;4903565;28;123935;-72
2021/07/27 08:05:06;;;;;;;48.83;29.60;;;;;;;24.06;71.01;100626.16;4908303;28;122129;-73
2021/07/27 08:07:34;;;;;;;57.45;30.15;;;;;;;24.10;71.29;100623.78;4868316;28;122116;-73
2021/07/27 08:10:02;;;;;;;47.38;28.13;;;;;;;24.16;71.15;100616.75;4911301;28;122266;-73
2021/07/27 08:12:27;;;;;;;43.35;27.00;;;;;;;24.26;70.63;100628.22;4904376;28;122322;-74
2021/07/27 08:14:53;;;;;;;47.75;30.15;;;;;;;24.35;70.56;100627.00;4903851;28;121853;-73
2021/07/27 08:17:21;;;;;;;42.40;27.50;;;;;;;24.40;70.32;100623.31;4905744;28;122654;-74
2021/07/27 08:19:47;;;;;;;38.47;25.25;;;;;;;24.47;69.83;100625.44;4902587;28;122380;-73
2021/07/27 08:22:14;;;;;;;48.72;29.85;;;;;;;24.52;70.17;100623.78;4886413;28;122435;-72
2021/07/27 08:24:39;;;;;;;51.55;31.63;;;;;;;24.52;70.20;100623.78;4905368;28;122112;-73
2021/07/27 08:27:08;;;;;;;45.67;30.20;;;;;;;24.57;69.96;100625.69;4888597;28;122577;-73
2021/07/27 08:29:37;;;;;;;51.00;30.65;;;;;;;24.57;70.11;100628.47;4902649;28;122425;-73
2021/07/27 08:32:08;;;;;;;39.75;27.45;;;;;;;24.63;69.40;100624.25;4901889;28;123620;-74
2021/07/27 08:34:36;;;;;;;45.92;30.45;;;;;;;24.75;70.07;100627.50;4888986;28;121935;-73
2021/07/27 08:37:07;;;;;;;43.95;28.42;;;;;;;24.80;69.72;100620.97;4903103;28;122313;-73
2021/07/27 08:39:34;;;;;;;51.63;32.78;;;;;;;24.88;69.10;100633.00;4896605;28;122593;-73
2021/07/27 08:42:03;;;;;;;46.38;32.63;;;;;;;24.90;69.11;100624.78;4903897;28;122558;-72
2021/07/27 08:44:31;;;;;;;53.80;33.72;;;;;;;24.90;69.24;100621.97;4905804;28;122433;-73
2021/07/27 08:46:59;;;;;;;42.15;29.70;;;;;;;24.93;69.16;100628.53;4904346;28;122865;-73
2021/07/27 08:49:25;;;;;;;44.83;31.55;;;;;;;24.94;68.39;100633.59;4901326;28;122292;-73
2021/07/27 08:51:51;;;;;;;48.05;35.13;;;;;;;24.98;68.75;100619.97;4886096;28;127265;-74
2021/07/27 08:54:17;;;;;;;49.25;34.63;;;;;;;25.03;68.71;100610.66;4904276;28;122237;-73
2021/07/27 08:56:44;;;;;;;50.80;34.20;;;;;;;25.13;68.49;100618.56;4901879;28;122712;-73
2021/07/27 08:59:10;;;;;;;51.10;35.63;;;;;;;25.18;68.34;100618.41;4897352;28;122232;-73
2021/07/27 09:01:38;;;;;;;48.20;33.33;;;;;;;25.24;68.29;100624.59;4894990;28;122272;-73
2021/07/27 09:04:05;;;;;;;46.58;32.33;;;;;;;25.23;67.92;100620.28;4904417;28;122174;-74
2021/07/27 09:06:31;;;;;;;57.13;37.47;;;;;;;25.29;67.75;100623.69;4903982;28;122964;-73
2021/07/27 09:09:11;;;;;;;43.33;30.95;;;;;;;25.21;67.60;100616.53;4889620;28;122187;-73
2021/07/27 09:11:48;;;;;;;49.17;32.78;;;;;;;25.27;67.75;100626.28;4899616;28;122698;-73
2021/07/27 09:14:16;;;;;;;47.42;34.20;;;;;;;25.22;67.59;100623.66;4900057;28;122569;-73
2021/07/27 09:16:46;;;;;;;44.15;30.80;;;;;;;25.12;67.41;100617.06;4896893;28;122406;-73
2021/07/27 09:19:13;;;;;;;52.53;33.22;;;;;;;25.17;67.41;100633.75;4886836;28;122329;-74
2021/07/27 09:21:42;;;;;;;43.45;29.95;;;;;;;25.18;67.61;100629.63;4885425;28;122788;-73
2021/07/27 09:24:11;;;;;;;42.83;31.33;;;;;;;25.17;67.56;100639.38;4883892;28;122170;-73
2021/07/27 09:26:39;;;;;;;40.80;28.60;;;;;;;25.19;67.63;100633.19;4884486;28;122284;-73
2021/07/27 09:29:07;;;;;;;46.38;31.15;;;;;;;25.25;67.78;100637.34;4903686;28;122408;-73
2021/07/27 09:31:36;;;;;;;38.53;27.67;;;;;;;25.29;66.78;100629.28;4904394;28;122125;-73
2021/07/27 09:34:10;;;;;;;37.90;27.13;;;;;;;25.29;66.84;100623.69;4884166;28;122078;-73
2021/07/27 09:36:37;;;;;;;35.20;25.83;;;;;;;25.26;66.22;100632.47;4902312;28;122924;-73
2021/07/27 09:39:04;;;;;;;35.78;25.27;;;;;;;25.20;66.25;100629.06;4897885;28;122566;-74
2021/07/27 09:41:31;;;;;;;36.60;24.75;;;;;;;25.20;67.09;100624.22;4889812;28;126481;-73
2021/07/27 09:43:58;;;;;;;33.67;25.17;;;;;;;25.24;66.72;100623.84;4895497;28;124387;-73
2021/07/27 09:46:27;;;;;;;36.70;25.08;;;;;;;25.16;66.65;100617.47;4901752;28;122456;-73
2021/07/27 09:48:53;;;;;;;36.05;24.42;;;;;;;25.23;66.27;100630.78;4883688;28;122644;-73
2021/07/27 09:51:21;;;;;;;36.42;25.27;;;;;;;25.23;67.00;100620.28;4906492;28;122379;-73
2021/07/27 09:53:49;;;;;;;27.58;20.42;;;;;;;25.29;66.25;100626.50;4899865;28;122999;-73
2021/07/27 09:56:15;;;;;;;25.50;18.15;;;;;;;25.34;64.89;100622.03;4902675;28;122950;-73
2021/07/27 09:58:41;;;;;;;26.13;19.30;;;;;;;25.46;65.30;100628.06;4901806;28;123484;-73
2021/07/27 10:01:11;;;;;;;28.80;20.30;;;;;;;25.51;64.89;100629.94;4903222;28;122711;-73
2021/07/27 10:04:00;;;;;;;28.83;20.30;;;;;;;25.54;65.28;100629.56;4902967;28;123093;-73
2021/07/27 10:06:29;;;;;;;32.00;22.25;;;;;;;25.52;65.46;100637.81;4883430;28;122747;-73
2021/07/27 10:09:01;;;;;;;23.48;16.70;;;;;;;25.50;64.86;100629.19;4904642;28;127002;-73
2021/07/27 10:11:39;;;;;;;21.48;16.10;;;;;;;25.44;64.46;100628.63;4886803;28;123800;-73
2021/07/27 10:14:13;;;;;;;24.38;16.10;;;;;;;25.43;64.60;100634.78;4898640;28;125592;-73
2021/07/27 10:16:39;;;;;;;25.55;18.27;;;;;;;25.40;64.71;100634.59;4900290;28;122590;-73
2021/07/27 10:19:18;;;;;;;23.08;17.17;;;;;;;25.30;64.18;100616.75;4902935;28;122319;-73
2021/07/27 10:21:45;;;;;;;22.73;17.70;;;;;;;25.33;64.29;100626.16;4955451;23;123129;-77
2021/07/27 10:24:24;;;;;;;23.58;16.77;;;;;;;25.34;63.99;100634.03;4869516;28;122603;-77
2021/07/27 10:26:50;;;;;;;26.38;18.98;;;;;;;25.32;64.38;100636.63;4885550;28;122129;-77
2021/07/27 10:29:30;;;;;;;26.05;19.30;;;;;;;25.27;63.63;100628.34;4885701;28;122420;-76
2021/07/27 10:31:59;;;;;;;28.10;18.92;;;;;;;25.24;64.71;100641.44;4852309;28;123447;-77
2021/07/27 10:34:32;;;;;;;25.50;19.02;;;;;;;25.22;64.84;100637.69;4868801;28;122814;-77
2021/07/27 10:37:08;;;;;;;;;;;;;;;25.19;64.79;100642.38;4871344;28;122400;-77
2021/07/27 10:39:45;;;;;;;26.60;17.25;;;;;;;25.21;65.11;100631.31;4863936;28;124138;-77
2021/07/27 10:42:11;;;;;;;23.52;17.25;;;;;;;25.33;64.79;100638.13;4871637;28;121939;-76
2021/07/27 10:44:37;;;;;;;22.42;17.45;;;;;;;25.40;63.93;100628.22;4868008;28;123264;-77
2021/07/27 10:47:03;;;;;;;22.55;16.85;;;;;;;25.40;63.62;100631.78;4867912;28;122105;-76
2021/07/27 10:49:31;;;;;;;20.88;15.50;;;;;;;25.38;63.40;100634.41;4865171;28;122523;-77
2021/07/27 10:52:02;;;;;;;21.33;15.10;;;;;;;25.36;63.07;100641.88;4850644;28;123880;-77
2021/07/27 10:54:38;;;;;;;23.50;15.57;;;;;;;25.31;63.77;100639.97;4867509;28;125867;-76
2021/07/27 10:57:07;;;;;;;19.65;15.45;;;;;;;25.28;63.74;100629.84;4870418;28;121925;-76
2021/07/27 10:59:40;;;;;;;18.38;14.63;;;;;;;25.30;64.00;100638.47;4887666;28;122386;-77
2021/07/27 11:02:08;;;;;;;21.30;15.27;;;;;;;25.25;64.35;100637.34;4850407;28;122737;-77
2021/07/27 11:04:34;;;;;;;19.98;14.27;;;;;;;25.18;64.16;100637.31;4880986;28;122106;-76
2021/07/27 11:07:14;;;;;;;18.30;14.40;;;;;;;25.13;63.61;100646.63;4871773;28;122917;-76
2021/07/27 11:09:54;;;;;;;19.27;13.85;;;;;;;25.05;62.48;100655.00;4862943;28;123342;-77
2021/07/27 11:12:31;;;;;;;20.27;16.73;;;;;;;24.93;63.30;100645.38;4852427;28;122274;-77
2021/07/27 11:15:11;;;;;;;21.65;16.45;;;;;;;24.82;64.16;100657.63;4853565;28;121945;-77
2021/07/27 11:17:47;;;;;;;22.35;16.67;;;;;;;24.74;64.06;100662.44;4860974;28;122927;-77
2021/07/27 11:20:19;;;;;;;20.38;16.00;;;;;;;24.68;65.43;100653.44;4855199;28;122109;-77
2021/07/27 11:22:53;;;;;;;22.65;17.75;;;;;;;24.63;65.42;100648.75;4884436;28;129814;-76
2021/07/27 11:25:20;;;;;;;23.60;17.95;;;;;;;24.62;65.57;100650.03;4870079;28;122401;-77
2021/07/27 11:27:47;;;;;;;25.23;19.08;;;;;;;24.63;66.55;100631.91;4869188;28;122231;-77
2021/07/27 11:30:14;;;;;;;22.27;17.10;;;;;;;24.75;66.10;100641.50;4851949;28;122007;-76
2021/07/27 11:32:41;;;;;;;22.42;16.52;;;;;;;24.83;65.89;100635.94;4868925;28;121925;-77